createdAt,value
2019-03-31T11:49:46.648Z,1017.52
2019-03-31T11:50:46.580Z,1017.54
2019-03-31T11:51:46.616Z,1017.55
2019-03-31T11:52:46.590Z,1017.46
2019-03-31T11:53:46.575Z,1017.46
2019-03-31T11:54:46.597Z,1017.65
2019-03-31T11:55:46.637Z,1017.56
2019-03-31T11:56:46.635Z,1017.52
2019-03-31T11:57:46.638Z,1017.54
2019-03-31T11:58:46.628Z,1017.51
2019-03-31T11:59:49.546Z,1017.50
2019-03-31T12:00:46.617Z,1017.48
2019-03-31T12:01:46.607Z,1017.50
2019-03-31T12:02:46.594Z,1017.53
2019-03-31T12:03:46.606Z,1017.57
2019-03-31T12:04:46.636Z,1017.55
2019-03-31T12:05:46.716Z,1017.67
2019-03-31T12:07:28.399Z,1017.56
2019-03-31T12:08:26.152Z,1017.57
2019-03-31T12:15:06.231Z,1017.54
2019-03-31T12:45:19.933Z,1017.41
2019-03-31T12:46:19.935Z,1017.50
2019-03-31T12:47:19.933Z,1017.46
2019-03-31T12:48:19.945Z,1017.46
2019-03-31T12:49:19.932Z,1017.43
2019-03-31T12:50:19.963Z,1017.40
2019-03-31T12:51:19.915Z,1017.37
2019-03-31T12:52:19.931Z,1017.41
2019-03-31T12:53:19.938Z,1017.38
2019-03-31T12:54:19.941Z,1017.38
2019-03-31T12:55:19.946Z,1017.45
2019-03-31T12:56:19.986Z,1017.43
2019-03-31T12:57:51.541Z,1017.38
2019-03-31T12:58:48.060Z,1017.35
2019-03-31T12:59:48.049Z,1017.39
2019-03-31T13:00:48.100Z,1017.43
2019-03-31T13:01:48.115Z,1017.40
2019-03-31T13:02:48.067Z,1017.41
2019-03-31T13:03:48.109Z,1017.38
2019-03-31T13:04:48.071Z,1017.37
2019-03-31T13:05:48.095Z,1017.34
2019-03-31T13:06:48.085Z,1017.39
2019-03-31T13:07:56.165Z,1017.42
2019-03-31T13:08:48.082Z,1017.42
2019-03-31T13:09:48.101Z,1017.35
2019-03-31T13:10:48.114Z,1017.33
2019-03-31T13:11:50.415Z,1017.35
2019-03-31T13:12:48.074Z,1017.34
2019-03-31T13:13:48.064Z,1017.47
2019-03-31T13:14:48.099Z,1017.40
2019-03-31T13:15:48.080Z,1017.41
2019-03-31T13:16:48.116Z,1017.40
2019-03-31T13:44:59.770Z,1017.24
2019-03-31T13:46:00.305Z,1017.15
2019-03-31T13:46:59.745Z,1017.25
2019-03-31T13:47:59.769Z,1017.20
2019-03-31T13:48:59.772Z,1017.18
2019-03-31T13:49:59.758Z,1017.18
2019-03-31T13:50:59.750Z,1017.19
2019-03-31T13:51:59.756Z,1017.20
2019-03-31T13:52:59.833Z,1017.24
2019-03-31T13:53:59.805Z,1017.21
2019-03-31T13:54:59.803Z,1017.19
2019-03-31T13:55:59.826Z,1017.14
2019-03-31T13:56:59.919Z,1017.17
2019-03-31T13:58:02.156Z,1017.17
2019-03-31T13:58:59.807Z,1017.21
2019-03-31T13:59:59.789Z,1017.22
2019-03-31T14:00:59.855Z,1017.21
2019-03-31T14:02:00.409Z,1017.21
2019-03-31T14:02:59.805Z,1017.13
2019-03-31T14:04:03.211Z,1017.08
2019-03-31T14:04:59.792Z,1017.13
2019-03-31T14:05:59.778Z,1017.11
2019-03-31T14:06:59.803Z,1017.08
2019-03-31T14:07:59.830Z,1017.10
2019-03-31T14:08:59.818Z,1017.13
2019-03-31T14:09:59.793Z,1017.15
2019-03-31T14:10:59.808Z,1017.09
2019-03-31T14:11:59.803Z,1017.04
2019-03-31T14:12:59.809Z,1017.12
2019-03-31T14:13:59.816Z,1017.15
2019-03-31T14:14:59.832Z,1017.13
2019-03-31T14:15:59.838Z,1017.24
2019-03-31T14:16:59.803Z,1017.15
2019-03-31T14:18:15.298Z,1017.12
2019-03-31T14:19:15.293Z,1017.15
2019-03-31T14:20:15.274Z,1017.16
2019-03-31T14:21:15.289Z,1017.19
2019-03-31T14:22:15.300Z,1017.18
2019-03-31T14:23:15.261Z,1017.19
2019-03-31T14:24:15.317Z,1017.21
2019-03-31T14:25:15.277Z,1017.19
2019-03-31T14:26:15.319Z,1017.14
2019-03-31T14:27:15.287Z,1017.19
2019-03-31T14:28:15.320Z,1017.18
2019-03-31T14:29:15.376Z,1017.19
2019-03-31T14:30:15.322Z,1017.18
2019-03-31T14:31:15.287Z,1017.23
2019-03-31T14:32:15.282Z,1017.08
2019-03-31T14:33:15.311Z,1017.22
2019-03-31T14:34:15.293Z,1017.21
2019-03-31T14:35:15.296Z,1017.26
2019-03-31T14:36:15.298Z,1017.16
2019-03-31T14:37:15.288Z,1017.32
2019-03-31T14:38:15.309Z,1017.18
2019-03-31T14:39:17.112Z,1017.21
2019-03-31T14:40:15.307Z,1017.18
2019-03-31T14:41:15.346Z,1017.25
2019-03-31T14:42:15.322Z,1017.22
2019-03-31T14:43:15.350Z,1017.13
2019-03-31T14:44:15.384Z,1017.23
2019-03-31T14:45:15.338Z,1017.18
2019-03-31T14:46:15.394Z,1017.19
2019-03-31T14:47:15.303Z,1017.20
2019-03-31T14:48:15.324Z,1017.08
2019-03-31T14:49:15.499Z,1017.14
2019-03-31T14:50:15.359Z,1017.19
2019-03-31T14:51:15.306Z,1017.18
2019-03-31T14:52:26.658Z,1017.19
2019-03-31T14:53:15.336Z,1017.07
2019-03-31T14:54:15.397Z,1017.15
2019-03-31T14:55:15.323Z,1017.12
2019-03-31T14:56:15.348Z,1017.10
2019-03-31T14:57:15.329Z,1017.14
2019-03-31T14:58:15.350Z,1017.15
2019-03-31T14:59:15.360Z,1017.12
2019-03-31T15:00:15.566Z,1017.04
2019-03-31T15:01:15.346Z,1017.18
2019-03-31T15:02:15.313Z,1017.11
2019-03-31T15:03:18.001Z,1017.07
2019-03-31T15:04:15.438Z,1017.14
2019-03-31T15:05:15.318Z,1017.16
2019-03-31T15:06:15.328Z,1017.08
2019-03-31T15:07:15.333Z,1017.03
2019-03-31T15:08:15.410Z,1017.06
2019-03-31T15:09:15.425Z,1017.11
2019-03-31T15:10:15.366Z,1017.12
2019-03-31T15:11:15.391Z,1017.10
2019-03-31T15:12:15.443Z,1017.14
2019-03-31T15:13:15.423Z,1017.07
2019-03-31T15:14:15.462Z,1017.14
2019-03-31T15:15:15.478Z,1017.12
2019-03-31T15:16:15.456Z,1017.13
2019-03-31T15:17:15.491Z,1017.11
2019-03-31T15:18:15.472Z,1017.06
2019-03-31T15:19:15.584Z,1017.18
2019-03-31T15:20:15.566Z,1017.05
2019-03-31T15:21:15.532Z,1017.14
2019-03-31T15:22:15.575Z,1017.16
2019-03-31T15:23:15.553Z,1017.15
2019-03-31T15:24:15.591Z,1017.16
2019-03-31T15:25:15.552Z,1017.09
2019-03-31T15:26:15.633Z,1017.16
2019-03-31T15:27:15.593Z,1017.12
2019-03-31T15:28:15.662Z,1017.21
2019-03-31T15:29:15.667Z,1017.15
2019-03-31T15:30:15.686Z,1017.10
2019-03-31T15:31:15.664Z,1017.11
2019-03-31T15:32:15.686Z,1017.14
2019-03-31T15:33:15.649Z,1017.11
2019-03-31T15:34:15.763Z,1017.06
2019-03-31T15:35:15.741Z,1017.12
2019-03-31T15:36:15.698Z,1017.16
2019-03-31T15:37:15.777Z,1017.11
2019-03-31T15:38:15.760Z,1017.18
2019-03-31T15:39:15.739Z,1017.11
2019-03-31T15:40:15.818Z,1017.15
2019-03-31T15:41:21.339Z,1017.13
2019-03-31T15:42:15.753Z,1017.13
2019-03-31T15:43:15.772Z,1017.10
2019-03-31T15:44:15.785Z,1017.11
2019-03-31T15:45:15.779Z,1017.14
2019-03-31T15:46:15.743Z,1017.10
2019-03-31T15:47:15.760Z,1017.12
2019-03-31T15:48:15.822Z,1017.15
2019-03-31T15:49:15.815Z,1017.13
2019-03-31T15:50:15.774Z,1017.06
2019-03-31T15:51:15.769Z,1017.11
2019-03-31T15:52:15.762Z,1017.08
2019-03-31T15:53:15.804Z,1017.14
2019-03-31T15:54:15.839Z,1017.17
2019-03-31T15:55:15.807Z,1017.17
2019-03-31T15:56:15.778Z,1017.16
2019-03-31T15:57:15.796Z,1017.28
2019-03-31T15:58:15.771Z,1017.32
2019-03-31T15:59:15.780Z,1017.29
2019-03-31T16:00:15.799Z,1017.25
2019-03-31T16:01:15.780Z,1017.16
2019-03-31T16:02:15.792Z,1017.26
2019-03-31T16:37:15.874Z,1017.32
2019-03-31T16:39:10.494Z,1017.30
2019-03-31T16:40:10.429Z,1017.26
2019-03-31T16:41:10.459Z,1017.35
2019-03-31T16:42:10.413Z,1017.30
2019-03-31T16:43:10.448Z,1017.35
2019-03-31T16:44:10.398Z,1017.41
2019-03-31T16:45:10.460Z,1017.37
2019-03-31T16:46:10.440Z,1017.35
2019-03-31T16:47:10.457Z,1017.32
2019-03-31T16:48:10.432Z,1017.43
2019-03-31T16:49:10.426Z,1017.41
2019-03-31T16:50:10.483Z,1017.35
2019-03-31T16:51:10.742Z,1017.34
2019-03-31T16:52:10.427Z,1017.37
2019-03-31T16:53:10.449Z,1017.37
2019-03-31T16:54:10.456Z,1017.32
2019-03-31T16:55:10.450Z,1017.33
2019-03-31T16:56:10.587Z,1017.37
2019-03-31T16:57:10.476Z,1017.42
2019-03-31T16:58:10.464Z,1017.50
2019-03-31T16:59:10.436Z,1017.46
2019-03-31T17:00:10.451Z,1017.39
2019-03-31T17:01:10.521Z,1017.45
2019-03-31T17:02:10.471Z,1017.42
2019-03-31T17:03:10.446Z,1017.45
2019-03-31T17:04:10.474Z,1017.42
2019-03-31T17:05:21.206Z,1017.39
2019-03-31T17:06:10.498Z,1017.37
2019-03-31T17:07:10.456Z,1017.42
2019-03-31T17:08:10.468Z,1017.37
2019-03-31T17:09:10.420Z,1017.42
2019-03-31T17:10:10.462Z,1017.42
2019-03-31T17:11:10.512Z,1017.41
2019-03-31T17:12:10.487Z,1017.45
2019-03-31T17:13:10.442Z,1017.46
2019-03-31T17:14:10.498Z,1017.43
2019-03-31T17:15:10.513Z,1017.39
2019-03-31T17:16:10.496Z,1017.47
2019-03-31T17:17:10.503Z,1017.48
2019-03-31T17:18:10.489Z,1017.45
2019-03-31T17:19:10.465Z,1017.49
2019-03-31T17:20:10.463Z,1017.40
2019-03-31T17:21:10.679Z,1017.55
2019-03-31T17:22:10.506Z,1017.50
2019-03-31T17:23:10.564Z,1017.54
2019-03-31T17:24:10.553Z,1017.55
2019-03-31T17:25:10.637Z,1017.48
2019-03-31T17:26:10.654Z,1017.49
2019-03-31T17:27:13.890Z,1017.42
